sensor_id;sensor_type;location;lat;lon;timestamp;P1;durP1;ratioP1;P2;durP2;ratioP2
18176;SDS011;9213;50.858;3.964;2023-06-10T00:00:49;9.98;;;7.15;;
18176;SDS011;9213;50.858;3.964;2023-06-10T00:03:16;8.05;;;7.25;;
18176;SDS011;9213;50.858;3.964;2023-06-10T00:05:44;9.23;;;7.35;;
18176;SDS011;9213;50.858;3.964;2023-06-10T00:08:11;8.23;;;7.43;;
18176;SDS011;9213;50.858;3.964;2023-06-10T00:10:42;8.52;;;7.55;;
18176;SDS011;9213;50.858;3.964;2023-06-10T00:13:09;8.30;;;7.50;;
18176;SDS011;9213;50.858;3.964;2023-06-10T00:15:36;7.43;;;6.72;;
18176;SDS011;9213;50.858;3.964;2023-06-10T00:18:03;8.45;;;7.72;;
18176;SDS011;9213;50.858;3.964;2023-06-10T00:20:30;8.30;;;7.55;;
18176;SDS011;9213;50.858;3.964;2023-06-10T00:22:58;8.55;;;7.75;;
18176;SDS011;9213;50.858;3.964;2023-06-10T00:25:26;9.40;;;8.15;;
18176;SDS011;9213;50.858;3.964;2023-06-10T00:27:54;8.90;;;7.55;;
18176;SDS011;9213;50.858;3.964;2023-06-10T00:30:21;8.50;;;7.80;;
18176;SDS011;9213;50.858;3.964;2023-06-10T00:32:48;8.90;;;8.07;;
18176;SDS011;9213;50.858;3.964;2023-06-10T00:35:15;13.38;;;8.27;;
18176;SDS011;9213;50.858;3.964;2023-06-10T00:37:42;8.82;;;8.02;;
18176;SDS011;9213;50.858;3.964;2023-06-10T00:40:09;9.32;;;8.43;;
18176;SDS011;9213;50.858;3.964;2023-06-10T00:42:37;8.82;;;8.02;;
18176;SDS011;9213;50.858;3.964;2023-06-10T00:45:06;8.57;;;7.55;;
18176;SDS011;9213;50.858;3.964;2023-06-10T00:47:33;9.50;;;8.13;;
18176;SDS011;9213;50.858;3.964;2023-06-10T00:50:01;12.43;;;8.07;;
18176;SDS011;9213;50.858;3.964;2023-06-10T00:52:28;8.40;;;7.70;;
18176;SDS011;9213;50.858;3.964;2023-06-10T00:54:56;9.07;;;8.18;;
18176;SDS011;9213;50.858;3.964;2023-06-10T00:57:24;8.48;;;7.68;;
18176;SDS011;9213;50.858;3.964;2023-06-10T00:59:51;9.18;;;8.23;;
18176;SDS011;9213;50.858;3.964;2023-06-10T01:02:19;8.95;;;7.93;;
18176;SDS011;9213;50.858;3.964;2023-06-10T01:04:47;10.20;;;9.13;;
18176;SDS011;9213;50.858;3.964;2023-06-10T01:07:15;9.13;;;8.30;;
18176;SDS011;9213;50.858;3.964;2023-06-10T01:09:50;9.05;;;8.27;;
18176;SDS011;9213;50.858;3.964;2023-06-10T01:12:26;11.15;;;8.23;;
18176;SDS011;9213;50.858;3.964;2023-06-10T01:14:58;9.35;;;8.55;;
18176;SDS011;9213;50.858;3.964;2023-06-10T01:17:27;9.45;;;8.65;;
18176;SDS011;9213;50.858;3.964;2023-06-10T01:19:55;9.68;;;8.77;;
18176;SDS011;9213;50.858;3.964;2023-06-10T01:22:25;10.48;;;8.70;;
18176;SDS011;9213;50.858;3.964;2023-06-10T01:24:53;9.50;;;8.23;;
18176;SDS011;9213;50.858;3.964;2023-06-10T01:27:23;9.52;;;8.63;;
18176;SDS011;9213;50.858;3.964;2023-06-10T01:29:57;9.60;;;8.80;;
18176;SDS011;9213;50.858;3.964;2023-06-10T01:32:32;10.18;;;9.10;;
18176;SDS011;9213;50.858;3.964;2023-06-10T01:35:01;9.15;;;8.40;;
18176;SDS011;9213;50.858;3.964;2023-06-10T01:37:31;10.20;;;9.20;;
18176;SDS011;9213;50.858;3.964;2023-06-10T01:40:01;10.23;;;9.15;;
18176;SDS011;9213;50.858;3.964;2023-06-10T01:42:31;9.25;;;8.35;;
18176;SDS011;9213;50.858;3.964;2023-06-10T01:44:58;10.90;;;9.55;;
18176;SDS011;9213;50.858;3.964;2023-06-10T01:47:25;12.68;;;8.90;;
18176;SDS011;9213;50.858;3.964;2023-06-10T01:49:52;10.13;;;9.15;;
18176;SDS011;9213;50.858;3.964;2023-06-10T01:52:19;10.77;;;8.65;;
18176;SDS011;9213;50.858;3.964;2023-06-10T01:54:47;10.05;;;9.15;;
18176;SDS011;9213;50.858;3.964;2023-06-10T01:57:14;9.40;;;8.65;;
18176;SDS011;9213;50.858;3.964;2023-06-10T01:59:41;9.82;;;8.95;;
18176;SDS011;9213;50.858;3.964;2023-06-10T02:02:09;9.77;;;8.93;;
18176;SDS011;9213;50.858;3.964;2023-06-10T02:04:36;9.80;;;8.90;;
18176;SDS011;9213;50.858;3.964;2023-06-10T02:07:03;10.32;;;9.25;;
18176;SDS011;9213;50.858;3.964;2023-06-10T02:09:30;10.48;;;9.48;;
18176;SDS011;9213;50.858;3.964;2023-06-10T02:12:01;10.88;;;9.75;;
18176;SDS011;9213;50.858;3.964;2023-06-10T02:14:29;11.07;;;9.70;;
18176;SDS011;9213;50.858;3.964;2023-06-10T02:16:56;11.10;;;10.10;;
18176;SDS011;9213;50.858;3.964;2023-06-10T02:19:23;10.80;;;9.75;;
18176;SDS011;9213;50.858;3.964;2023-06-10T02:21:52;11.55;;;10.45;;
18176;SDS011;9213;50.858;3.964;2023-06-10T02:24:19;11.43;;;9.60;;
18176;SDS011;9213;50.858;3.964;2023-06-10T02:26:46;9.80;;;8.73;;
18176;SDS011;9213;50.858;3.964;2023-06-10T02:29:14;10.15;;;9.32;;
18176;SDS011;9213;50.858;3.964;2023-06-10T02:31:41;10.60;;;9.68;;
18176;SDS011;9213;50.858;3.964;2023-06-10T02:34:08;11.10;;;9.90;;
18176;SDS011;9213;50.858;3.964;2023-06-10T02:36:35;10.63;;;9.52;;
18176;SDS011;9213;50.858;3.964;2023-06-10T02:39:02;11.13;;;10.05;;
18176;SDS011;9213;50.858;3.964;2023-06-10T02:41:29;11.05;;;9.68;;
18176;SDS011;9213;50.858;3.964;2023-06-10T02:43:56;10.57;;;9.45;;
18176;SDS011;9213;50.858;3.964;2023-06-10T02:46:24;11.07;;;9.80;;
18176;SDS011;9213;50.858;3.964;2023-06-10T02:48:53;11.13;;;10.13;;
18176;SDS011;9213;50.858;3.964;2023-06-10T02:51:20;11.30;;;10.18;;
18176;SDS011;9213;50.858;3.964;2023-06-10T02:53:47;11.27;;;9.68;;
18176;SDS011;9213;50.858;3.964;2023-06-10T02:56:15;11.25;;;10.07;;
18176;SDS011;9213;50.858;3.964;2023-06-10T02:58:43;11.13;;;9.98;;
18176;SDS011;9213;50.858;3.964;2023-06-10T03:01:10;10.88;;;9.77;;
18176;SDS011;9213;50.858;3.964;2023-06-10T03:03:39;10.30;;;9.40;;
18176;SDS011;9213;50.858;3.964;2023-06-10T03:06:07;11.00;;;9.90;;
18176;SDS011;9213;50.858;3.964;2023-06-10T03:08:35;10.80;;;9.80;;
18176;SDS011;9213;50.858;3.964;2023-06-10T03:11:02;11.65;;;10.30;;
18176;SDS011;9213;50.858;3.964;2023-06-10T03:13:29;10.82;;;9.70;;
18176;SDS011;9213;50.858;3.964;2023-06-10T03:15:56;11.32;;;10.18;;
18176;SDS011;9213;50.858;3.964;2023-06-10T03:18:25;11.55;;;10.35;;
18176;SDS011;9213;50.858;3.964;2023-06-10T03:20:54;11.48;;;10.38;;
18176;SDS011;9213;50.858;3.964;2023-06-10T03:23:21;11.63;;;10.48;;
18176;SDS011;9213;50.858;3.964;2023-06-10T03:25:49;10.75;;;9.75;;
18176;SDS011;9213;50.858;3.964;2023-06-10T03:28:16;10.98;;;9.98;;
18176;SDS011;9213;50.858;3.964;2023-06-10T03:30:42;11.13;;;10.02;;
18176;SDS011;9213;50.858;3.964;2023-06-10T03:33:09;11.07;;;10.07;;
18176;SDS011;9213;50.858;3.964;2023-06-10T03:35:36;11.88;;;10.63;;
18176;SDS011;9213;50.858;3.964;2023-06-10T03:38:05;11.63;;;10.48;;
18176;SDS011;9213;50.858;3.964;2023-06-10T03:40:31;11.85;;;10.45;;
18176;SDS011;9213;50.858;3.964;2023-06-10T03:42:59;11.32;;;10.18;;
18176;SDS011;9213;50.858;3.964;2023-06-10T03:45:26;13.85;;;10.63;;
18176;SDS011;9213;50.858;3.964;2023-06-10T03:47:54;12.80;;;11.50;;
18176;SDS011;9213;50.858;3.964;2023-06-10T03:50:22;11.43;;;10.43;;
18176;SDS011;9213;50.858;3.964;2023-06-10T03:52:49;11.23;;;10.32;;
18176;SDS011;9213;50.858;3.964;2023-06-10T03:55:18;12.15;;;10.85;;
18176;SDS011;9213;50.858;3.964;2023-06-10T03:57:47;11.55;;;10.52;;
18176;SDS011;9213;50.858;3.964;2023-06-10T04:00:14;11.93;;;10.77;;
18176;SDS011;9213;50.858;3.964;2023-06-10T04:02:42;11.85;;;10.50;;
18176;SDS011;9213;50.858;3.964;2023-06-10T04:05:12;11.88;;;10.73;;
18176;SDS011;9213;50.858;3.964;2023-06-10T04:07:39;11.85;;;10.77;;
18176;SDS011;9213;50.858;3.964;2023-06-10T04:10:07;11.82;;;10.70;;
18176;SDS011;9213;50.858;3.964;2023-06-10T04:12:36;12.32;;;11.10;;
18176;SDS011;9213;50.858;3.964;2023-06-10T04:15:04;11.73;;;10.55;;
18176;SDS011;9213;50.858;3.964;2023-06-10T04:17:32;11.60;;;10.65;;
18176;SDS011;9213;50.858;3.964;2023-06-10T04:19:58;11.32;;;10.13;;
18176;SDS011;9213;50.858;3.964;2023-06-10T04:22:25;11.38;;;10.23;;
18176;SDS011;9213;50.858;3.964;2023-06-10T04:24:52;11.52;;;10.52;;
18176;SDS011;9213;50.858;3.964;2023-06-10T04:27:19;12.05;;;11.00;;
18176;SDS011;9213;50.858;3.964;2023-06-10T04:29:48;11.80;;;10.70;;
18176;SDS011;9213;50.858;3.964;2023-06-10T04:32:14;12.27;;;11.13;;
18176;SDS011;9213;50.858;3.964;2023-06-10T04:34:41;11.88;;;10.70;;
18176;SDS011;9213;50.858;3.964;2023-06-10T04:37:08;11.65;;;10.43;;
18176;SDS011;9213;50.858;3.964;2023-06-10T04:39:35;12.38;;;11.15;;
18176;SDS011;9213;50.858;3.964;2023-06-10T04:42:02;11.75;;;10.48;;
18176;SDS011;9213;50.858;3.964;2023-06-10T04:44:30;11.50;;;10.40;;
18176;SDS011;9213;50.858;3.964;2023-06-10T04:46:58;12.40;;;10.35;;
18176;SDS011;9213;50.858;3.964;2023-06-10T04:49:26;12.52;;;11.38;;
18176;SDS011;9213;50.858;3.964;2023-06-10T04:51:53;15.13;;;10.63;;
18176;SDS011;9213;50.858;3.964;2023-06-10T04:54:20;12.63;;;11.07;;
18176;SDS011;9213;50.858;3.964;2023-06-10T04:56:47;12.13;;;10.57;;
18176;SDS011;9213;50.858;3.964;2023-06-10T04:59:14;13.02;;;11.10;;
18176;SDS011;9213;50.858;3.964;2023-06-10T05:01:41;13.50;;;11.05;;
18176;SDS011;9213;50.858;3.964;2023-06-10T05:04:09;15.82;;;11.77;;
18176;SDS011;9213;50.858;3.964;2023-06-10T05:06:36;13.23;;;10.70;;
18176;SDS011;9213;50.858;3.964;2023-06-10T05:09:03;12.85;;;11.25;;
18176;SDS011;9213;50.858;3.964;2023-06-10T05:11:30;12.70;;;11.50;;
18176;SDS011;9213;50.858;3.964;2023-06-10T05:13:57;12.55;;;10.93;;
18176;SDS011;9213;50.858;3.964;2023-06-10T05:16:24;15.77;;;12.13;;
18176;SDS011;9213;50.858;3.964;2023-06-10T05:18:51;12.30;;;11.15;;
18176;SDS011;9213;50.858;3.964;2023-06-10T05:21:19;12.60;;;11.30;;
18176;SDS011;9213;50.858;3.964;2023-06-10T05:23:46;12.90;;;11.65;;
18176;SDS011;9213;50.858;3.964;2023-06-10T05:26:13;12.65;;;11.35;;
18176;SDS011;9213;50.858;3.964;2023-06-10T05:28:40;12.82;;;11.65;;
18176;SDS011;9213;50.858;3.964;2023-06-10T05:31:07;13.35;;;12.10;;
18176;SDS011;9213;50.858;3.964;2023-06-10T05:33:34;13.02;;;11.73;;
18176;SDS011;9213;50.858;3.964;2023-06-10T05:36:01;13.63;;;12.32;;
18176;SDS011;9213;50.858;3.964;2023-06-10T05:38:29;13.32;;;12.05;;
18176;SDS011;9213;50.858;3.964;2023-06-10T05:40:56;12.77;;;11.57;;
18176;SDS011;9213;50.858;3.964;2023-06-10T05:43:24;13.57;;;12.18;;
18176;SDS011;9213;50.858;3.964;2023-06-10T05:45:50;13.73;;;12.07;;
18176;SDS011;9213;50.858;3.964;2023-06-10T05:48:18;13.23;;;12.07;;
18176;SDS011;9213;50.858;3.964;2023-06-10T05:50:45;12.65;;;10.98;;
18176;SDS011;9213;50.858;3.964;2023-06-10T05:53:13;14.40;;;11.13;;
18176;SDS011;9213;50.858;3.964;2023-06-10T05:55:42;12.02;;;10.93;;
18176;SDS011;9213;50.858;3.964;2023-06-10T05:58:10;12.50;;;11.20;;
18176;SDS011;9213;50.858;3.964;2023-06-10T06:00:37;13.55;;;12.20;;
18176;SDS011;9213;50.858;3.964;2023-06-10T06:03:05;14.25;;;11.90;;
18176;SDS011;9213;50.858;3.964;2023-06-10T06:05:33;11.88;;;10.68;;
18176;SDS011;9213;50.858;3.964;2023-06-10T06:08:00;12.88;;;11.55;;
18176;SDS011;9213;50.858;3.964;2023-06-10T06:10:27;12.77;;;11.57;;
18176;SDS011;9213;50.858;3.964;2023-06-10T06:12:56;12.85;;;10.90;;
18176;SDS011;9213;50.858;3.964;2023-06-10T06:15:22;15.82;;;10.73;;
18176;SDS011;9213;50.858;3.964;2023-06-10T06:17:49;12.77;;;11.27;;
18176;SDS011;9213;50.858;3.964;2023-06-10T06:20:17;11.20;;;10.20;;
18176;SDS011;9213;50.858;3.964;2023-06-10T06:22:44;12.20;;;11.10;;
18176;SDS011;9213;50.858;3.964;2023-06-10T06:25:11;11.18;;;10.07;;
18176;SDS011;9213;50.858;3.964;2023-06-10T06:27:38;11.43;;;10.32;;
18176;SDS011;9213;50.858;3.964;2023-06-10T06:30:07;12.63;;;11.35;;
18176;SDS011;9213;50.858;3.964;2023-06-10T06:32:35;12.35;;;10.63;;
18176;SDS011;9213;50.858;3.964;2023-06-10T06:35:01;11.27;;;10.10;;
18176;SDS011;9213;50.858;3.964;2023-06-10T06:37:31;12.00;;;9.30;;
18176;SDS011;9213;50.858;3.964;2023-06-10T06:39:57;10.27;;;8.93;;
18176;SDS011;9213;50.858;3.964;2023-06-10T06:42:25;10.57;;;9.43;;
18176;SDS011;9213;50.858;3.964;2023-06-10T06:44:51;10.38;;;8.80;;
18176;SDS011;9213;50.858;3.964;2023-06-10T06:47:20;11.43;;;8.98;;
18176;SDS011;9213;50.858;3.964;2023-06-10T06:49:47;9.45;;;8.50;;
18176;SDS011;9213;50.858;3.964;2023-06-10T06:52:14;10.18;;;8.05;;
18176;SDS011;9213;50.858;3.964;2023-06-10T06:54:41;8.65;;;7.75;;
18176;SDS011;9213;50.858;3.964;2023-06-10T06:57:08;10.18;;;7.90;;
18176;SDS011;9213;50.858;3.964;2023-06-10T06:59:35;9.30;;;8.23;;
18176;SDS011;9213;50.858;3.964;2023-06-10T07:02:02;8.68;;;7.72;;
18176;SDS011;9213;50.858;3.964;2023-06-10T07:04:31;8.68;;;7.88;;
18176;SDS011;9213;50.858;3.964;2023-06-10T07:06:58;8.05;;;7.32;;
18176;SDS011;9213;50.858;3.964;2023-06-10T07:09:25;9.55;;;8.35;;
18176;SDS011;9213;50.858;3.964;2023-06-10T07:11:53;7.82;;;7.13;;
18176;SDS011;9213;50.858;3.964;2023-06-10T07:14:20;8.27;;;7.43;;
18176;SDS011;9213;50.858;3.964;2023-06-10T07:16:47;7.72;;;7.03;;
18176;SDS011;9213;50.858;3.964;2023-06-10T07:19:14;10.57;;;7.30;;
18176;SDS011;9213;50.858;3.964;2023-06-10T07:21:43;7.75;;;7.05;;
18176;SDS011;9213;50.858;3.964;2023-06-10T07:24:09;8.07;;;7.28;;
18176;SDS011;9213;50.858;3.964;2023-06-10T07:26:36;7.65;;;6.95;;
18176;SDS011;9213;50.858;3.964;2023-06-10T07:29:03;7.60;;;6.90;;
18176;SDS011;9213;50.858;3.964;2023-06-10T07:31:30;7.53;;;6.93;;
18176;SDS011;9213;50.858;3.964;2023-06-10T07:33:57;8.73;;;6.18;;
18176;SDS011;9213;50.858;3.964;2023-06-10T07:36:24;7.55;;;6.07;;
18176;SDS011;9213;50.858;3.964;2023-06-10T07:38:55;8.48;;;6.72;;
18176;SDS011;9213;50.858;3.964;2023-06-10T07:41:22;7.93;;;7.13;;
18176;SDS011;9213;50.858;3.964;2023-06-10T07:43:49;8.70;;;6.45;;
18176;SDS011;9213;50.858;3.964;2023-06-10T07:46:19;6.95;;;6.35;;
18176;SDS011;9213;50.858;3.964;2023-06-10T07:48:46;7.10;;;6.05;;
18176;SDS011;9213;50.858;3.964;2023-06-10T07:51:13;7.60;;;5.93;;
18176;SDS011;9213;50.858;3.964;2023-06-10T07:53:41;6.93;;;6.32;;
18176;SDS011;9213;50.858;3.964;2023-06-10T07:56:09;9.32;;;5.70;;
18176;SDS011;9213;50.858;3.964;2023-06-10T07:58:36;8.00;;;5.80;;
18176;SDS011;9213;50.858;3.964;2023-06-10T08:01:03;7.10;;;6.13;;
18176;SDS011;9213;50.858;3.964;2023-06-10T08:03:30;7.25;;;5.40;;
18176;SDS011;9213;50.858;3.964;2023-06-10T08:05:57;6.00;;;5.40;;
18176;SDS011;9213;50.858;3.964;2023-06-10T08:08:24;4.95;;;4.50;;
18176;SDS011;9213;50.858;3.964;2023-06-10T08:10:51;5.28;;;4.78;;
18176;SDS011;9213;50.858;3.964;2023-06-10T08:13:19;5.75;;;4.57;;
18176;SDS011;9213;50.858;3.964;2023-06-10T08:15:47;6.25;;;5.10;;
18176;SDS011;9213;50.858;3.964;2023-06-10T08:18:15;6.97;;;5.20;;
18176;SDS011;9213;50.858;3.964;2023-06-10T08:20:42;4.95;;;4.45;;
18176;SDS011;9213;50.858;3.964;2023-06-10T08:23:09;5.15;;;4.75;;
18176;SDS011;9213;50.858;3.964;2023-06-10T08:25:36;5.63;;;4.78;;
18176;SDS011;9213;50.858;3.964;2023-06-10T08:28:03;5.35;;;4.95;;
18176;SDS011;9213;50.858;3.964;2023-06-10T08:30:31;5.07;;;4.68;;
18176;SDS011;9213;50.858;3.964;2023-06-10T08:32:59;5.10;;;4.40;;
18176;SDS011;9213;50.858;3.964;2023-06-10T08:35:26;6.63;;;4.63;;
18176;SDS011;9213;50.858;3.964;2023-06-10T08:37:53;5.18;;;4.30;;
18176;SDS011;9213;50.858;3.964;2023-06-10T08:40:20;7.45;;;4.60;;
18176;SDS011;9213;50.858;3.964;2023-06-10T08:42:48;5.25;;;4.78;;
18176;SDS011;9213;50.858;3.964;2023-06-10T08:45:20;4.82;;;4.43;;
18176;SDS011;9213;50.858;3.964;2023-06-10T08:47:50;4.93;;;4.53;;
18176;SDS011;9213;50.858;3.964;2023-06-10T08:50:18;4.97;;;4.45;;
18176;SDS011;9213;50.858;3.964;2023-06-10T08:52:46;5.78;;;4.35;;
18176;SDS011;9213;50.858;3.964;2023-06-10T08:55:18;6.63;;;4.82;;
18176;SDS011;9213;50.858;3.964;2023-06-10T08:57:51;5.22;;;4.68;;
18176;SDS011;9213;50.858;3.964;2023-06-10T09:00:18;5.43;;;4.35;;
18176;SDS011;9213;50.858;3.964;2023-06-10T09:02:45;4.95;;;4.45;;
18176;SDS011;9213;50.858;3.964;2023-06-10T09:05:14;4.40;;;3.90;;
18176;SDS011;9213;50.858;3.964;2023-06-10T09:07:42;5.03;;;4.50;;
18176;SDS011;9213;50.858;3.964;2023-06-10T09:10:10;5.00;;;4.28;;
18176;SDS011;9213;50.858;3.964;2023-06-10T09:12:38;5.38;;;4.85;;
18176;SDS011;9213;50.858;3.964;2023-06-10T09:15:05;6.28;;;4.55;;
18176;SDS011;9213;50.858;3.964;2023-06-10T09:17:33;6.35;;;4.57;;
18176;SDS011;9213;50.858;3.964;2023-06-10T09:20:01;5.40;;;4.90;;
18176;SDS011;9213;50.858;3.964;2023-06-10T09:22:30;4.90;;;4.50;;
18176;SDS011;9213;50.858;3.964;2023-06-10T09:25:02;6.18;;;4.75;;
18176;SDS011;9213;50.858;3.964;2023-06-10T09:27:30;6.22;;;4.70;;
18176;SDS011;9213;50.858;3.964;2023-06-10T09:29:58;7.00;;;4.97;;
18176;SDS011;9213;50.858;3.964;2023-06-10T09:32:25;7.88;;;5.00;;
18176;SDS011;9213;50.858;3.964;2023-06-10T09:34:53;7.60;;;5.03;;
18176;SDS011;9213;50.858;3.964;2023-06-10T09:37:20;5.30;;;4.80;;
18176;SDS011;9213;50.858;3.964;2023-06-10T09:40:01;7.70;;;5.25;;
18176;SDS011;9213;50.858;3.964;2023-06-10T09:42:32;5.47;;;4.97;;
18176;SDS011;9213;50.858;3.964;2023-06-10T09:45:00;7.78;;;5.65;;
18176;SDS011;9213;50.858;3.964;2023-06-10T09:47:27;6.47;;;4.82;;
18176;SDS011;9213;50.858;3.964;2023-06-10T09:49:54;7.03;;;4.80;;
18176;SDS011;9213;50.858;3.964;2023-06-10T09:52:21;7.00;;;5.22;;
18176;SDS011;9213;50.858;3.964;2023-06-10T09:54:49;7.55;;;5.28;;
18176;SDS011;9213;50.858;3.964;2023-06-10T09:57:19;5.70;;;4.97;;
18176;SDS011;9213;50.858;3.964;2023-06-10T09:59:47;10.75;;;5.57;;
18176;SDS011;9213;50.858;3.964;2023-06-10T10:02:14;5.57;;;4.85;;
18176;SDS011;9213;50.858;3.964;2023-06-10T10:04:41;6.18;;;5.30;;
18176;SDS011;9213;50.858;3.964;2023-06-10T10:07:08;7.18;;;5.40;;
18176;SDS011;9213;50.858;3.964;2023-06-10T10:09:36;5.18;;;4.72;;
18176;SDS011;9213;50.858;3.964;2023-06-10T10:12:04;5.50;;;5.05;;
18176;SDS011;9213;50.858;3.964;2023-06-10T10:14:37;8.98;;;5.32;;
18176;SDS011;9213;50.858;3.964;2023-06-10T10:17:06;5.75;;;5.18;;
18176;SDS011;9213;50.858;3.964;2023-06-10T10:19:37;6.35;;;5.30;;
18176;SDS011;9213;50.858;3.964;2023-06-10T10:22:15;5.85;;;5.35;;
18176;SDS011;9213;50.858;3.964;2023-06-10T10:24:46;7.97;;;5.40;;
18176;SDS011;9213;50.858;3.964;2023-06-10T10:27:17;5.85;;;5.10;;
18176;SDS011;9213;50.858;3.964;2023-06-10T10:29:49;5.65;;;5.15;;
18176;SDS011;9213;50.858;3.964;2023-06-10T10:32:18;5.65;;;5.15;;
18176;SDS011;9213;50.858;3.964;2023-06-10T10:34:53;5.93;;;4.75;;
18176;SDS011;9213;50.858;3.964;2023-06-10T10:37:27;5.57;;;5.05;;
18176;SDS011;9213;50.858;3.964;2023-06-10T10:39:55;5.60;;;5.10;;
18176;SDS011;9213;50.858;3.964;2023-06-10T10:42:23;5.25;;;4.82;;
18176;SDS011;9213;50.858;3.964;2023-06-10T10:44:52;5.75;;;5.28;;
18176;SDS011;9213;50.858;3.964;2023-06-10T10:47:20;5.30;;;4.80;;
18176;SDS011;9213;50.858;3.964;2023-06-10T10:49:48;4.88;;;4.50;;
18176;SDS011;9213;50.858;3.964;2023-06-10T10:52:18;5.55;;;5.05;;
18176;SDS011;9213;50.858;3.964;2023-06-10T10:54:45;5.38;;;4.90;;
18176;SDS011;9213;50.858;3.964;2023-06-10T10:57:14;9.68;;;5.32;;
18176;SDS011;9213;50.858;3.964;2023-06-10T10:59:44;4.97;;;4.53;;
18176;SDS011;9213;50.858;3.964;2023-06-10T11:02:16;5.30;;;4.38;;
18176;SDS011;9213;50.858;3.964;2023-06-10T11:04:44;5.10;;;4.60;;
18176;SDS011;9213;50.858;3.964;2023-06-10T11:07:12;5.00;;;4.63;;
18176;SDS011;9213;50.858;3.964;2023-06-10T11:09:46;4.80;;;4.40;;
18176;SDS011;9213;50.858;3.964;2023-06-10T11:12:24;5.03;;;4.53;;
18176;SDS011;9213;50.858;3.964;2023-06-10T11:14:53;4.53;;;4.15;;
18176;SDS011;9213;50.858;3.964;2023-06-10T11:17:22;5.10;;;4.60;;
18176;SDS011;9213;50.858;3.964;2023-06-10T11:19:49;5.07;;;4.57;;
18176;SDS011;9213;50.858;3.964;2023-06-10T11:22:16;5.60;;;4.38;;
18176;SDS011;9213;50.858;3.964;2023-06-10T11:24:47;4.80;;;4.40;;
18176;SDS011;9213;50.858;3.964;2023-06-10T11:27:15;5.28;;;4.18;;
18176;SDS011;9213;50.858;3.964;2023-06-10T11:29:56;5.25;;;4.72;;
18176;SDS011;9213;50.858;3.964;2023-06-10T11:32:42;4.50;;;4.20;;
18176;SDS011;9213;50.858;3.964;2023-06-10T11:35:09;4.75;;;4.35;;
18176;SDS011;9213;50.858;3.964;2023-06-10T11:37:36;4.35;;;4.03;;
18176;SDS011;9213;50.858;3.964;2023-06-10T11:40:04;6.35;;;4.70;;
18176;SDS011;9213;50.858;3.964;2023-06-10T11:42:37;4.65;;;4.15;;
18176;SDS011;9213;50.858;3.964;2023-06-10T11:45:05;4.32;;;3.90;;
18176;SDS011;9213;50.858;3.964;2023-06-10T11:47:34;4.78;;;4.32;;
18176;SDS011;9213;50.858;3.964;2023-06-10T11:50:02;4.20;;;3.90;;
18176;SDS011;9213;50.858;3.964;2023-06-10T11:52:29;5.53;;;4.88;;
18176;SDS011;9213;50.858;3.964;2023-06-10T11:54:58;4.70;;;4.30;;
18176;SDS011;9213;50.858;3.964;2023-06-10T11:57:26;4.90;;;4.40;;
18176;SDS011;9213;50.858;3.964;2023-06-10T11:59:53;5.88;;;4.28;;
18176;SDS011;9213;50.858;3.964;2023-06-10T12:02:20;4.30;;;3.95;;
18176;SDS011;9213;50.858;3.964;2023-06-10T12:04:47;6.13;;;4.18;;
18176;SDS011;9213;50.858;3.964;2023-06-10T12:07:19;7.13;;;4.25;;
18176;SDS011;9213;50.858;3.964;2023-06-10T12:09:52;4.90;;;4.32;;
18176;SDS011;9213;50.858;3.964;2023-06-10T12:12:25;4.68;;;4.28;;
18176;SDS011;9213;50.858;3.964;2023-06-10T12:14:53;4.75;;;4.32;;
18176;SDS011;9213;50.858;3.964;2023-06-10T12:17:22;5.35;;;4.13;;
18176;SDS011;9213;50.858;3.964;2023-06-10T12:19:50;7.15;;;4.10;;
18176;SDS011;9213;50.858;3.964;2023-06-10T12:22:18;5.13;;;4.47;;
18176;SDS011;9213;50.858;3.964;2023-06-10T12:24:56;6.18;;;4.93;;
18176;SDS011;9213;50.858;3.964;2023-06-10T12:27:26;4.50;;;4.10;;
18176;SDS011;9213;50.858;3.964;2023-06-10T12:29:54;5.20;;;4.45;;
18176;SDS011;9213;50.858;3.964;2023-06-10T12:32:34;4.50;;;4.15;;
18176;SDS011;9213;50.858;3.964;2023-06-10T12:35:02;4.95;;;4.55;;
18176;SDS011;9213;50.858;3.964;2023-06-10T12:37:31;9.30;;;4.65;;
18176;SDS011;9213;50.858;3.964;2023-06-10T12:39:59;5.28;;;4.50;;
18176;SDS011;9213;50.858;3.964;2023-06-10T12:42:27;6.65;;;4.78;;
18176;SDS011;9213;50.858;3.964;2023-06-10T12:44:56;6.90;;;4.57;;
18176;SDS011;9213;50.858;3.964;2023-06-10T12:47:29;6.25;;;4.72;;
18176;SDS011;9213;50.858;3.964;2023-06-10T12:49:57;7.55;;;5.13;;
18176;SDS011;9213;50.858;3.964;2023-06-10T12:52:25;7.32;;;4.55;;
18176;SDS011;9213;50.858;3.964;2023-06-10T12:54:53;4.60;;;4.20;;
18176;SDS011;9213;50.858;3.964;2023-06-10T12:57:20;5.97;;;4.97;;
18176;SDS011;9213;50.858;3.964;2023-06-10T12:59:48;5.07;;;4.57;;
18176;SDS011;9213;50.858;3.964;2023-06-10T13:02:17;5.47;;;4.50;;
18176;SDS011;9213;50.858;3.964;2023-06-10T13:04:45;5.82;;;4.53;;
18176;SDS011;9213;50.858;3.964;2023-06-10T13:07:13;4.90;;;4.50;;
18176;SDS011;9213;50.858;3.964;2023-06-10T13:09:39;4.82;;;4.43;;
18176;SDS011;9213;50.858;3.964;2023-06-10T13:12:08;6.30;;;4.47;;
18176;SDS011;9213;50.858;3.964;2023-06-10T13:14:36;9.02;;;4.97;;
18176;SDS011;9213;50.858;3.964;2023-06-10T13:17:03;5.40;;;4.90;;
18176;SDS011;9213;50.858;3.964;2023-06-10T13:19:31;4.95;;;4.57;;
18176;SDS011;9213;50.858;3.964;2023-06-10T13:21:58;5.00;;;4.65;;
18176;SDS011;9213;50.858;3.964;2023-06-10T13:24:26;4.80;;;4.50;;
18176;SDS011;9213;50.858;3.964;2023-06-10T13:26:53;4.80;;;4.43;;
18176;SDS011;9213;50.858;3.964;2023-06-10T13:29:22;5.55;;;4.95;;
18176;SDS011;9213;50.858;3.964;2023-06-10T13:31:49;6.25;;;4.57;;
18176;SDS011;9213;50.858;3.964;2023-06-10T13:34:16;6.55;;;5.05;;
18176;SDS011;9213;50.858;3.964;2023-06-10T13:36:43;5.25;;;4.72;;
18176;SDS011;9213;50.858;3.964;2023-06-10T13:39:10;5.35;;;4.85;;
18176;SDS011;9213;50.858;3.964;2023-06-10T13:41:38;5.38;;;4.68;;
18176;SDS011;9213;50.858;3.964;2023-06-10T13:44:07;5.70;;;5.00;;
18176;SDS011;9213;50.858;3.964;2023-06-10T13:46:35;4.90;;;4.60;;
18176;SDS011;9213;50.858;3.964;2023-06-10T13:49:02;5.63;;;4.97;;
18176;SDS011;9213;50.858;3.964;2023-06-10T13:51:29;4.97;;;4.57;;
18176;SDS011;9213;50.858;3.964;2023-06-10T13:53:56;6.60;;;4.95;;
18176;SDS011;9213;50.858;3.964;2023-06-10T13:56:23;5.10;;;4.60;;
18176;SDS011;9213;50.858;3.964;2023-06-10T13:58:50;5.53;;;5.00;;
18176;SDS011;9213;50.858;3.964;2023-06-10T14:01:17;7.28;;;5.43;;
18176;SDS011;9213;50.858;3.964;2023-06-10T14:03:45;5.50;;;5.10;;
18176;SDS011;9213;50.858;3.964;2023-06-10T14:06:12;5.20;;;4.80;;
18176;SDS011;9213;50.858;3.964;2023-06-10T14:08:43;6.63;;;5.18;;
18176;SDS011;9213;50.858;3.964;2023-06-10T14:11:10;5.75;;;4.72;;
18176;SDS011;9213;50.858;3.964;2023-06-10T14:13:37;5.32;;;4.82;;
18176;SDS011;9213;50.858;3.964;2023-06-10T14:16:04;6.10;;;4.78;;
18176;SDS011;9213;50.858;3.964;2023-06-10T14:18:31;5.13;;;4.68;;
18176;SDS011;9213;50.858;3.964;2023-06-10T14:21:00;7.13;;;5.07;;
18176;SDS011;9213;50.858;3.964;2023-06-10T14:23:26;5.80;;;4.85;;
18176;SDS011;9213;50.858;3.964;2023-06-10T14:25:53;5.50;;;5.00;;
18176;SDS011;9213;50.858;3.964;2023-06-10T14:28:20;5.32;;;4.82;;
18176;SDS011;9213;50.858;3.964;2023-06-10T14:30:49;5.93;;;4.88;;
18176;SDS011;9213;50.858;3.964;2023-06-10T14:33:16;5.35;;;4.88;;
18176;SDS011;9213;50.858;3.964;2023-06-10T14:35:42;7.38;;;5.45;;
18176;SDS011;9213;50.858;3.964;2023-06-10T14:38:11;6.28;;;5.07;;
18176;SDS011;9213;50.858;3.964;2023-06-10T14:40:38;5.93;;;5.32;;
18176;SDS011;9213;50.858;3.964;2023-06-10T14:43:05;5.20;;;4.80;;
18176;SDS011;9213;50.858;3.964;2023-06-10T14:45:35;7.75;;;5.50;;
18176;SDS011;9213;50.858;3.964;2023-06-10T14:48:02;5.35;;;4.93;;
18176;SDS011;9213;50.858;3.964;2023-06-10T14:50:29;5.57;;;4.70;;
18176;SDS011;9213;50.858;3.964;2023-06-10T14:52:57;5.90;;;5.40;;
18176;SDS011;9213;50.858;3.964;2023-06-10T14:55:25;6.07;;;5.57;;
18176;SDS011;9213;50.858;3.964;2023-06-10T14:57:52;5.85;;;5.25;;